sensor_id;sensor_type;location;lat;lon;timestamp;P1;durP1;ratioP1;P2;durP2;ratioP2
26906;SDS011;14472;56.880;16.658;2023-10-19T00:00:34;2.10;;;1.30;;
26906;SDS011;14472;56.880;16.658;2023-10-19T00:03:04;2.33;;;1.30;;
26906;SDS011;14472;56.880;16.658;2023-10-19T00:05:31;2.43;;;1.40;;
26906;SDS011;14472;56.880;16.658;2023-10-19T00:08:07;3.03;;;1.30;;
26906;SDS011;14472;56.880;16.658;2023-10-19T00:10:39;2.83;;;1.50;;
26906;SDS011;14472;56.880;16.658;2023-10-19T00:13:08;4.40;;;1.40;;
26906;SDS011;14472;56.880;16.658;2023-10-19T00:15:36;1.40;;;1.30;;
26906;SDS011;14472;56.880;16.658;2023-10-19T00:18:12;1.60;;;1.30;;
26906;SDS011;14472;56.880;16.658;2023-10-19T00:20:40;2.20;;;1.30;;
26906;SDS011;14472;56.880;16.658;2023-10-19T00:23:13;2.63;;;1.40;;
26906;SDS011;14472;56.880;16.658;2023-10-19T00:25:39;1.53;;;1.20;;
26906;SDS011;14472;56.880;16.658;2023-10-19T00:28:09;1.43;;;1.20;;
26906;SDS011;14472;56.880;16.658;2023-10-19T00:30:38;1.30;;;1.17;;
26906;SDS011;14472;56.880;16.658;2023-10-19T00:33:04;2.03;;;1.43;;
26906;SDS011;14472;56.880;16.658;2023-10-19T00:35:41;3.63;;;1.33;;
26906;SDS011;14472;56.880;16.658;2023-10-19T00:38:11;2.03;;;1.30;;
26906;SDS011;14472;56.880;16.658;2023-10-19T00:41:04;1.57;;;1.37;;
26906;SDS011;14472;56.880;16.658;2023-10-19T00:43:32;3.40;;;1.20;;
26906;SDS011;14472;56.880;16.658;2023-10-19T00:46:01;1.90;;;1.10;;
26906;SDS011;14472;56.880;16.658;2023-10-19T00:48:49;1.20;;;1.10;;
26906;SDS011;14472;56.880;16.658;2023-10-19T00:51:22;2.47;;;1.20;;
26906;SDS011;14472;56.880;16.658;2023-10-19T00:54:11;1.77;;;1.40;;
26906;SDS011;14472;56.880;16.658;2023-10-19T00:56:51;1.50;;;1.30;;
26906;SDS011;14472;56.880;16.658;2023-10-19T00:59:21;2.17;;;1.20;;
26906;SDS011;14472;56.880;16.658;2023-10-19T01:01:50;2.23;;;1.37;;
26906;SDS011;14472;56.880;16.658;2023-10-19T01:04:28;1.57;;;1.33;;
26906;SDS011;14472;56.880;16.658;2023-10-19T01:06:59;1.17;;;1.07;;
26906;SDS011;14472;56.880;16.658;2023-10-19T01:09:37;2.03;;;1.10;;
26906;SDS011;14472;56.880;16.658;2023-10-19T01:12:04;2.33;;;1.30;;
26906;SDS011;14472;56.880;16.658;2023-10-19T01:17:41;1.77;;;1.13;;
26906;SDS011;14472;56.880;16.658;2023-10-19T01:20:12;1.40;;;1.30;;
26906;SDS011;14472;56.880;16.658;2023-10-19T01:22:48;2.67;;;1.20;;
26906;SDS011;14472;56.880;16.658;2023-10-19T01:28:23;1.70;;;1.10;;
26906;SDS011;14472;56.880;16.658;2023-10-19T01:31:06;2.30;;;1.27;;
26906;SDS011;14472;56.880;16.658;2023-10-19T01:33:47;3.03;;;1.30;;
26906;SDS011;14472;56.880;16.658;2023-10-19T01:36:14;2.33;;;1.33;;
26906;SDS011;14472;56.880;16.658;2023-10-19T01:38:40;1.93;;;1.30;;
26906;SDS011;14472;56.880;16.658;2023-10-19T01:41:07;2.20;;;1.33;;
26906;SDS011;14472;56.880;16.658;2023-10-19T01:43:42;2.40;;;1.07;;
26906;SDS011;14472;56.880;16.658;2023-10-19T01:46:10;1.30;;;1.20;;
26906;SDS011;14472;56.880;16.658;2023-10-19T01:48:38;1.43;;;1.30;;
26906;SDS011;14472;56.880;16.658;2023-10-19T01:51:06;2.87;;;1.30;;
26906;SDS011;14472;56.880;16.658;2023-10-19T01:53:35;1.37;;;1.20;;
26906;SDS011;14472;56.880;16.658;2023-10-19T01:56:04;1.17;;;1.07;;
26906;SDS011;14472;56.880;16.658;2023-10-19T01:58:34;2.03;;;1.20;;
26906;SDS011;14472;56.880;16.658;2023-10-19T02:01:03;2.60;;;1.20;;
26906;SDS011;14472;56.880;16.658;2023-10-19T02:03:42;1.57;;;1.20;;
26906;SDS011;14472;56.880;16.658;2023-10-19T02:06:08;2.00;;;1.33;;
26906;SDS011;14472;56.880;16.658;2023-10-19T02:08:58;1.57;;;1.27;;
26906;SDS011;14472;56.880;16.658;2023-10-19T02:11:26;1.67;;;1.30;;
26906;SDS011;14472;56.880;16.658;2023-10-19T02:13:54;1.47;;;1.10;;
26906;SDS011;14472;56.880;16.658;2023-10-19T02:16:25;1.33;;;1.10;;
26906;SDS011;14472;56.880;16.658;2023-10-19T02:18:54;1.73;;;1.23;;
26906;SDS011;14472;56.880;16.658;2023-10-19T02:21:20;2.23;;;1.10;;
26906;SDS011;14472;56.880;16.658;2023-10-19T02:23:52;2.07;;;1.40;;
26906;SDS011;14472;56.880;16.658;2023-10-19T02:26:18;2.23;;;1.20;;
26906;SDS011;14472;56.880;16.658;2023-10-19T02:28:46;1.07;;;0.97;;
26906;SDS011;14472;56.880;16.658;2023-10-19T02:31:12;1.43;;;1.30;;
26906;SDS011;14472;56.880;16.658;2023-10-19T02:33:43;2.37;;;1.30;;
26906;SDS011;14472;56.880;16.658;2023-10-19T02:36:11;1.77;;;1.17;;
26906;SDS011;14472;56.880;16.658;2023-10-19T02:38:41;3.20;;;1.30;;
26906;SDS011;14472;56.880;16.658;2023-10-19T02:41:13;1.83;;;1.10;;
26906;SDS011;14472;56.880;16.658;2023-10-19T02:43:43;1.30;;;1.20;;
26906;SDS011;14472;56.880;16.658;2023-10-19T02:46:16;3.90;;;1.10;;
26906;SDS011;14472;56.880;16.658;2023-10-19T02:48:43;1.93;;;1.20;;
26906;SDS011;14472;56.880;16.658;2023-10-19T02:51:13;1.23;;;1.10;;
26906;SDS011;14472;56.880;16.658;2023-10-19T02:53:41;2.67;;;1.10;;
26906;SDS011;14472;56.880;16.658;2023-10-19T02:56:14;2.90;;;1.13;;
26906;SDS011;14472;56.880;16.658;2023-10-19T02:58:49;1.53;;;1.10;;
26906;SDS011;14472;56.880;16.658;2023-10-19T03:01:16;2.57;;;1.37;;
26906;SDS011;14472;56.880;16.658;2023-10-19T03:03:46;1.53;;;1.27;;
26906;SDS011;14472;56.880;16.658;2023-10-19T03:06:30;2.00;;;1.17;;
26906;SDS011;14472;56.880;16.658;2023-10-19T03:08:58;1.90;;;1.20;;
26906;SDS011;14472;56.880;16.658;2023-10-19T03:11:27;2.57;;;1.13;;
26906;SDS011;14472;56.880;16.658;2023-10-19T03:13:53;1.80;;;1.00;;
26906;SDS011;14472;56.880;16.658;2023-10-19T03:16:20;1.53;;;1.13;;
26906;SDS011;14472;56.880;16.658;2023-10-19T03:18:47;2.47;;;1.20;;
26906;SDS011;14472;56.880;16.658;2023-10-19T03:21:12;2.07;;;1.30;;
26906;SDS011;14472;56.880;16.658;2023-10-19T03:23:38;2.10;;;1.20;;
26906;SDS011;14472;56.880;16.658;2023-10-19T03:26:05;1.33;;;1.07;;
26906;SDS011;14472;56.880;16.658;2023-10-19T03:29:07;1.50;;;0.97;;
26906;SDS011;14472;56.880;16.658;2023-10-19T03:31:37;1.50;;;1.20;;
26906;SDS011;14472;56.880;16.658;2023-10-19T03:34:08;1.10;;;1.00;;
26906;SDS011;14472;56.880;16.658;2023-10-19T03:36:35;1.20;;;1.10;;
26906;SDS011;14472;56.880;16.658;2023-10-19T03:39:01;2.80;;;1.20;;
26906;SDS011;14472;56.880;16.658;2023-10-19T03:41:36;1.33;;;1.20;;
26906;SDS011;14472;56.880;16.658;2023-10-19T03:44:04;2.17;;;1.10;;
26906;SDS011;14472;56.880;16.658;2023-10-19T03:46:30;1.60;;;1.10;;
26906;SDS011;14472;56.880;16.658;2023-10-19T03:49:00;1.17;;;1.00;;
26906;SDS011;14472;56.880;16.658;2023-10-19T03:51:44;1.33;;;1.13;;
26906;SDS011;14472;56.880;16.658;2023-10-19T03:54:46;1.30;;;1.03;;
26906;SDS011;14472;56.880;16.658;2023-10-19T03:57:14;2.50;;;1.10;;
26906;SDS011;14472;56.880;16.658;2023-10-19T03:59:50;1.07;;;1.07;;
26906;SDS011;14472;56.880;16.658;2023-10-19T04:02:22;1.07;;;0.97;;
26906;SDS011;14472;56.880;16.658;2023-10-19T04:05:00;2.40;;;1.17;;
26906;SDS011;14472;56.880;16.658;2023-10-19T04:07:28;1.13;;;0.90;;
26906;SDS011;14472;56.880;16.658;2023-10-19T04:09:56;1.37;;;1.00;;
26906;SDS011;14472;56.880;16.658;2023-10-19T04:12:29;0.90;;;0.90;;
26906;SDS011;14472;56.880;16.658;2023-10-19T04:14:55;2.60;;;1.20;;
26906;SDS011;14472;56.880;16.658;2023-10-19T04:17:21;2.50;;;1.20;;
26906;SDS011;14472;56.880;16.658;2023-10-19T04:19:48;1.20;;;1.10;;
26906;SDS011;14472;56.880;16.658;2023-10-19T04:22:16;1.30;;;0.90;;
26906;SDS011;14472;56.880;16.658;2023-10-19T04:24:49;1.13;;;1.03;;
26906;SDS011;14472;56.880;16.658;2023-10-19T04:27:16;2.30;;;0.90;;
26906;SDS011;14472;56.880;16.658;2023-10-19T04:29:41;1.63;;;1.10;;
26906;SDS011;14472;56.880;16.658;2023-10-19T04:32:09;1.27;;;1.00;;
26906;SDS011;14472;56.880;16.658;2023-10-19T04:34:35;2.43;;;1.20;;
26906;SDS011;14472;56.880;16.658;2023-10-19T04:37:04;1.10;;;1.00;;
26906;SDS011;14472;56.880;16.658;2023-10-19T04:39:30;1.53;;;1.30;;
26906;SDS011;14472;56.880;16.658;2023-10-19T04:41:55;1.40;;;1.07;;
26906;SDS011;14472;56.880;16.658;2023-10-19T04:44:21;2.27;;;1.10;;
26906;SDS011;14472;56.880;16.658;2023-10-19T04:46:47;3.13;;;1.00;;
26906;SDS011;14472;56.880;16.658;2023-10-19T04:49:13;1.20;;;1.00;;
26906;SDS011;14472;56.880;16.658;2023-10-19T04:51:41;1.27;;;1.17;;
26906;SDS011;14472;56.880;16.658;2023-10-19T04:54:08;1.53;;;1.30;;
26906;SDS011;14472;56.880;16.658;2023-10-19T04:56:34;1.10;;;0.93;;
26906;SDS011;14472;56.880;16.658;2023-10-19T04:59:03;1.67;;;1.17;;
26906;SDS011;14472;56.880;16.658;2023-10-19T05:01:29;1.90;;;1.20;;
26906;SDS011;14472;56.880;16.658;2023-10-19T05:03:58;1.67;;;1.07;;
26906;SDS011;14472;56.880;16.658;2023-10-19T05:06:25;1.20;;;1.10;;
26906;SDS011;14472;56.880;16.658;2023-10-19T05:08:50;1.60;;;1.10;;
26906;SDS011;14472;56.880;16.658;2023-10-19T05:11:17;2.57;;;1.00;;
26906;SDS011;14472;56.880;16.658;2023-10-19T05:13:43;2.17;;;1.03;;
26906;SDS011;14472;56.880;16.658;2023-10-19T05:16:08;2.23;;;1.00;;
26906;SDS011;14472;56.880;16.658;2023-10-19T05:18:34;1.00;;;0.90;;
26906;SDS011;14472;56.880;16.658;2023-10-19T05:21:00;1.53;;;1.03;;
26906;SDS011;14472;56.880;16.658;2023-10-19T05:23:26;1.07;;;0.90;;
26906;SDS011;14472;56.880;16.658;2023-10-19T05:25:53;2.03;;;1.30;;
26906;SDS011;14472;56.880;16.658;2023-10-19T05:28:24;2.40;;;1.20;;
26906;SDS011;14472;56.880;16.658;2023-10-19T05:30:50;1.30;;;1.17;;
26906;SDS011;14472;56.880;16.658;2023-10-19T05:33:16;1.97;;;1.20;;
26906;SDS011;14472;56.880;16.658;2023-10-19T05:35:49;1.87;;;0.90;;
26906;SDS011;14472;56.880;16.658;2023-10-19T05:38:16;2.03;;;1.30;;
26906;SDS011;14472;56.880;16.658;2023-10-19T05:40:44;1.80;;;1.10;;
26906;SDS011;14472;56.880;16.658;2023-10-19T05:43:10;2.00;;;1.10;;
26906;SDS011;14472;56.880;16.658;2023-10-19T05:45:36;1.67;;;1.10;;
26906;SDS011;14472;56.880;16.658;2023-10-19T05:48:03;1.67;;;1.30;;
26906;SDS011;14472;56.880;16.658;2023-10-19T05:50:31;1.40;;;1.20;;
26906;SDS011;14472;56.880;16.658;2023-10-19T05:52:58;3.00;;;1.20;;
26906;SDS011;14472;56.880;16.658;2023-10-19T05:55:25;3.47;;;1.57;;
26906;SDS011;14472;56.880;16.658;2023-10-19T05:57:50;2.53;;;1.40;;
26906;SDS011;14472;56.880;16.658;2023-10-19T06:00:16;3.47;;;1.30;;
26906;SDS011;14472;56.880;16.658;2023-10-19T06:02:45;2.73;;;1.20;;
26906;SDS011;14472;56.880;16.658;2023-10-19T06:05:14;1.63;;;1.20;;
26906;SDS011;14472;56.880;16.658;2023-10-19T06:07:41;1.10;;;1.00;;
26906;SDS011;14472;56.880;16.658;2023-10-19T06:10:10;3.23;;;1.40;;
26906;SDS011;14472;56.880;16.658;2023-10-19T06:12:40;2.40;;;1.23;;
26906;SDS011;14472;56.880;16.658;2023-10-19T06:15:08;3.17;;;1.37;;
26906;SDS011;14472;56.880;16.658;2023-10-19T06:17:36;2.07;;;1.20;;
26906;SDS011;14472;56.880;16.658;2023-10-19T06:20:04;3.23;;;1.40;;
26906;SDS011;14472;56.880;16.658;2023-10-19T06:22:32;1.70;;;1.23;;
26906;SDS011;14472;56.880;16.658;2023-10-19T06:24:58;3.70;;;1.30;;
26906;SDS011;14472;56.880;16.658;2023-10-19T06:27:24;2.70;;;1.30;;
26906;SDS011;14472;56.880;16.658;2023-10-19T06:29:50;0.87;;;0.87;;
26906;SDS011;14472;56.880;16.658;2023-10-19T06:32:16;1.20;;;1.00;;
26906;SDS011;14472;56.880;16.658;2023-10-19T06:34:42;1.20;;;1.10;;
26906;SDS011;14472;56.880;16.658;2023-10-19T06:37:08;1.80;;;1.30;;
26906;SDS011;14472;56.880;16.658;2023-10-19T06:39:35;2.10;;;1.30;;
26906;SDS011;14472;56.880;16.658;2023-10-19T06:42:05;1.63;;;1.20;;
26906;SDS011;14472;56.880;16.658;2023-10-19T06:44:38;3.27;;;1.80;;
26906;SDS011;14472;56.880;16.658;2023-10-19T06:47:07;2.27;;;1.10;;
26906;SDS011;14472;56.880;16.658;2023-10-19T06:49:32;3.33;;;1.70;;
26906;SDS011;14472;56.880;16.658;2023-10-19T06:51:59;2.87;;;1.50;;
26906;SDS011;14472;56.880;16.658;2023-10-19T06:54:25;1.80;;;1.40;;
26906;SDS011;14472;56.880;16.658;2023-10-19T06:56:52;1.57;;;1.23;;
26906;SDS011;14472;56.880;16.658;2023-10-19T06:59:18;1.40;;;1.30;;
26906;SDS011;14472;56.880;16.658;2023-10-19T07:01:44;1.97;;;1.17;;
26906;SDS011;14472;56.880;16.658;2023-10-19T07:04:11;3.87;;;1.37;;
26906;SDS011;14472;56.880;16.658;2023-10-19T07:06:38;1.93;;;1.10;;
26906;SDS011;14472;56.880;16.658;2023-10-19T07:09:04;2.60;;;1.00;;
26906;SDS011;14472;56.880;16.658;2023-10-19T07:11:31;2.20;;;1.10;;
26906;SDS011;14472;56.880;16.658;2023-10-19T07:13:58;1.50;;;1.20;;
26906;SDS011;14472;56.880;16.658;2023-10-19T07:16:25;2.70;;;1.30;;
26906;SDS011;14472;56.880;16.658;2023-10-19T07:18:51;2.20;;;1.13;;
26906;SDS011;14472;56.880;16.658;2023-10-19T07:21:18;1.70;;;1.20;;
26906;SDS011;14472;56.880;16.658;2023-10-19T07:23:44;1.57;;;1.23;;
26906;SDS011;14472;56.880;16.658;2023-10-19T07:26:10;1.33;;;1.00;;
26906;SDS011;14472;56.880;16.658;2023-10-19T07:28:39;1.40;;;1.10;;
26906;SDS011;14472;56.880;16.658;2023-10-19T07:31:05;1.63;;;1.50;;
26906;SDS011;14472;56.880;16.658;2023-10-19T07:33:37;1.37;;;1.20;;
26906;SDS011;14472;56.880;16.658;2023-10-19T07:36:11;1.70;;;1.27;;
26906;SDS011;14472;56.880;16.658;2023-10-19T07:38:39;2.50;;;1.00;;
26906;SDS011;14472;56.880;16.658;2023-10-19T07:41:07;1.50;;;1.10;;
26906;SDS011;14472;56.880;16.658;2023-10-19T07:43:34;1.83;;;0.90;;
26906;SDS011;14472;56.880;16.658;2023-10-19T07:46:00;2.93;;;1.20;;
26906;SDS011;14472;56.880;16.658;2023-10-19T07:48:26;1.10;;;1.00;;
26906;SDS011;14472;56.880;16.658;2023-10-19T07:50:52;0.80;;;0.77;;
26906;SDS011;14472;56.880;16.658;2023-10-19T07:53:18;0.80;;;0.80;;
26906;SDS011;14472;56.880;16.658;2023-10-19T07:55:44;0.80;;;0.80;;
26906;SDS011;14472;56.880;16.658;2023-10-19T07:58:10;1.23;;;0.90;;
26906;SDS011;14472;56.880;16.658;2023-10-19T08:00:36;2.37;;;0.77;;
26906;SDS011;14472;56.880;16.658;2023-10-19T08:03:02;0.87;;;0.80;;
26906;SDS011;14472;56.880;16.658;2023-10-19T08:05:29;1.87;;;0.70;;
26906;SDS011;14472;56.880;16.658;2023-10-19T08:07:55;0.70;;;0.70;;
26906;SDS011;14472;56.880;16.658;2023-10-19T08:10:23;0.70;;;0.70;;
26906;SDS011;14472;56.880;16.658;2023-10-19T08:12:50;0.73;;;0.73;;
26906;SDS011;14472;56.880;16.658;2023-10-19T08:15:17;0.90;;;0.80;;
26906;SDS011;14472;56.880;16.658;2023-10-19T08:17:45;1.17;;;0.80;;
26906;SDS011;14472;56.880;16.658;2023-10-19T08:20:13;1.47;;;0.80;;
26906;SDS011;14472;56.880;16.658;2023-10-19T08:22:48;1.33;;;0.90;;
26906;SDS011;14472;56.880;16.658;2023-10-19T08:25:17;1.53;;;0.90;;
26906;SDS011;14472;56.880;16.658;2023-10-19T08:27:46;1.17;;;0.77;;
26906;SDS011;14472;56.880;16.658;2023-10-19T08:30:17;2.00;;;0.80;;
26906;SDS011;14472;56.880;16.658;2023-10-19T08:32:44;1.40;;;0.73;;
26906;SDS011;14472;56.880;16.658;2023-10-19T08:35:13;1.87;;;0.80;;
26906;SDS011;14472;56.880;16.658;2023-10-19T08:37:40;0.80;;;0.50;;
26906;SDS011;14472;56.880;16.658;2023-10-19T08:40:07;0.73;;;0.67;;
26906;SDS011;14472;56.880;16.658;2023-10-19T08:42:39;1.10;;;0.70;;
26906;SDS011;14472;56.880;16.658;2023-10-19T08:45:06;0.77;;;0.67;;
26906;SDS011;14472;56.880;16.658;2023-10-19T08:47:34;1.63;;;0.57;;
26906;SDS011;14472;56.880;16.658;2023-10-19T08:50:02;1.33;;;0.80;;
26906;SDS011;14472;56.880;16.658;2023-10-19T08:52:30;0.87;;;0.60;;
26906;SDS011;14472;56.880;16.658;2023-10-19T08:54:57;0.70;;;0.70;;
26906;SDS011;14472;56.880;16.658;2023-10-19T08:57:23;1.23;;;0.90;;
26906;SDS011;14472;56.880;16.658;2023-10-19T08:59:49;0.67;;;0.67;;
26906;SDS011;14472;56.880;16.658;2023-10-19T09:02:15;0.97;;;0.70;;
26906;SDS011;14472;56.880;16.658;2023-10-19T09:04:47;1.70;;;0.80;;
26906;SDS011;14472;56.880;16.658;2023-10-19T09:07:12;0.70;;;0.60;;
26906;SDS011;14472;56.880;16.658;2023-10-19T09:09:39;0.80;;;0.80;;
26906;SDS011;14472;56.880;16.658;2023-10-19T09:12:08;0.60;;;0.60;;
26906;SDS011;14472;56.880;16.658;2023-10-19T09:14:35;0.63;;;0.63;;
26906;SDS011;14472;56.880;16.658;2023-10-19T09:17:01;1.13;;;0.70;;
26906;SDS011;14472;56.880;16.658;2023-10-19T09:19:40;0.93;;;0.60;;
26906;SDS011;14472;56.880;16.658;2023-10-19T09:22:12;1.00;;;0.60;;
26906;SDS011;14472;56.880;16.658;2023-10-19T09:24:44;1.70;;;0.70;;
26906;SDS011;14472;56.880;16.658;2023-10-19T09:27:11;1.17;;;0.60;;
26906;SDS011;14472;56.880;16.658;2023-10-19T09:29:38;0.93;;;0.70;;
26906;SDS011;14472;56.880;16.658;2023-10-19T09:32:04;1.50;;;0.80;;
26906;SDS011;14472;56.880;16.658;2023-10-19T09:34:31;1.00;;;0.80;;
26906;SDS011;14472;56.880;16.658;2023-10-19T09:37:02;1.00;;;0.90;;
26906;SDS011;14472;56.880;16.658;2023-10-19T09:39:32;1.17;;;0.90;;
26906;SDS011;14472;56.880;16.658;2023-10-19T09:42:06;1.70;;;0.90;;
26906;SDS011;14472;56.880;16.658;2023-10-19T09:44:45;1.40;;;0.90;;
26906;SDS011;14472;56.880;16.658;2023-10-19T09:50:02;1.50;;;0.87;;
26906;SDS011;14472;56.880;16.658;2023-10-19T09:52:31;1.80;;;0.87;;
26906;SDS011;14472;56.880;16.658;2023-10-19T09:54:59;1.73;;;0.90;;
26906;SDS011;14472;56.880;16.658;2023-10-19T09:57:42;1.27;;;0.83;;
26906;SDS011;14472;56.880;16.658;2023-10-19T10:00:29;1.87;;;0.80;;
26906;SDS011;14472;56.880;16.658;2023-10-19T10:02:59;0.77;;;0.70;;
26906;SDS011;14472;56.880;16.658;2023-10-19T10:10:52;1.43;;;0.90;;
26906;SDS011;14472;56.880;16.658;2023-10-19T10:15:53;3.00;;;1.00;;
26906;SDS011;14472;56.880;16.658;2023-10-19T10:18:20;2.00;;;0.87;;
26906;SDS011;14472;56.880;16.658;2023-10-19T10:20:45;0.90;;;0.80;;
26906;SDS011;14472;56.880;16.658;2023-10-19T10:23:19;2.63;;;0.93;;
26906;SDS011;14472;56.880;16.658;2023-10-19T10:25:57;0.80;;;0.80;;
26906;SDS011;14472;56.880;16.658;2023-10-19T10:28:23;1.67;;;1.00;;
26906;SDS011;14472;56.880;16.658;2023-10-19T10:33:41;0.83;;;0.77;;
26906;SDS011;14472;56.880;16.658;2023-10-19T10:36:12;2.20;;;0.80;;
26906;SDS011;14472;56.880;16.658;2023-10-19T10:38:39;1.47;;;0.90;;
26906;SDS011;14472;56.880;16.658;2023-10-19T10:41:05;1.80;;;0.93;;
26906;SDS011;14472;56.880;16.658;2023-10-19T10:43:46;1.27;;;0.87;;
26906;SDS011;14472;56.880;16.658;2023-10-19T10:46:18;1.30;;;0.70;;
26906;SDS011;14472;56.880;16.658;2023-10-19T10:48:45;2.20;;;0.93;;
26906;SDS011;14472;56.880;16.658;2023-10-19T10:51:14;4.13;;;0.90;;
26906;SDS011;14472;56.880;16.658;2023-10-19T10:53:46;2.07;;;0.83;;
26906;SDS011;14472;56.880;16.658;2023-10-19T10:56:13;0.83;;;0.70;;
26906;SDS011;14472;56.880;16.658;2023-10-19T10:58:39;1.63;;;0.70;;
26906;SDS011;14472;56.880;16.658;2023-10-19T11:01:05;1.20;;;0.80;;
26906;SDS011;14472;56.880;16.658;2023-10-19T11:03:31;1.13;;;0.70;;
26906;SDS011;14472;56.880;16.658;2023-10-19T11:06:04;1.20;;;0.70;;
26906;SDS011;14472;56.880;16.658;2023-10-19T11:08:33;1.77;;;1.00;;
26906;SDS011;14472;56.880;16.658;2023-10-19T11:11:05;2.40;;;0.77;;
26906;SDS011;14472;56.880;16.658;2023-10-19T11:13:37;2.53;;;0.90;;
26906;SDS011;14472;56.880;16.658;2023-10-19T11:16:05;1.37;;;0.87;;
26906;SDS011;14472;56.880;16.658;2023-10-19T11:18:36;1.37;;;0.90;;
26906;SDS011;14472;56.880;16.658;2023-10-19T11:21:07;1.23;;;0.80;;
26906;SDS011;14472;56.880;16.658;2023-10-19T11:23:37;1.00;;;0.80;;
26906;SDS011;14472;56.880;16.658;2023-10-19T11:26:11;0.70;;;0.70;;
26906;SDS011;14472;56.880;16.658;2023-10-19T11:28:47;1.20;;;0.83;;
26906;SDS011;14472;56.880;16.658;2023-10-19T11:31:21;3.03;;;0.90;;
26906;SDS011;14472;56.880;16.658;2023-10-19T11:33:49;1.77;;;0.70;;
26906;SDS011;14472;56.880;16.658;2023-10-19T11:36:19;1.43;;;0.83;;
26906;SDS011;14472;56.880;16.658;2023-10-19T11:38:49;1.60;;;0.80;;
26906;SDS011;14472;56.880;16.658;2023-10-19T11:41:16;1.90;;;0.83;;
26906;SDS011;14472;56.880;16.658;2023-10-19T11:43:43;0.60;;;0.60;;
26906;SDS011;14472;56.880;16.658;2023-10-19T11:46:10;2.17;;;1.00;;
26906;SDS011;14472;56.880;16.658;2023-10-19T11:48:39;0.90;;;0.80;;
26906;SDS011;14472;56.880;16.658;2023-10-19T11:51:07;0.80;;;0.80;;
26906;SDS011;14472;56.880;16.658;2023-10-19T11:53:36;1.37;;;0.90;;
26906;SDS011;14472;56.880;16.658;2023-10-19T11:56:03;2.10;;;1.00;;
26906;SDS011;14472;56.880;16.658;2023-10-19T11:58:31;2.33;;;0.90;;
26906;SDS011;14472;56.880;16.658;2023-10-19T12:00:59;1.73;;;0.80;;
26906;SDS011;14472;56.880;16.658;2023-10-19T12:03:25;0.80;;;0.60;;
26906;SDS011;14472;56.880;16.658;2023-10-19T12:05:51;1.43;;;0.90;;
26906;SDS011;14472;56.880;16.658;2023-10-19T12:08:21;1.40;;;0.90;;
26906;SDS011;14472;56.880;16.658;2023-10-19T12:10:47;1.33;;;0.87;;
26906;SDS011;14472;56.880;16.658;2023-10-19T12:13:14;2.43;;;0.80;;
26906;SDS011;14472;56.880;16.658;2023-10-19T12:15:41;1.23;;;0.80;;
26906;SDS011;14472;56.880;16.658;2023-10-19T12:18:07;1.63;;;0.87;;
26906;SDS011;14472;56.880;16.658;2023-10-19T12:20:33;4.40;;;0.87;;
26906;SDS011;14472;56.880;16.658;2023-10-19T12:23:00;0.97;;;0.70;;
26906;SDS011;14472;56.880;16.658;2023-10-19T12:25:26;1.70;;;0.80;;
26906;SDS011;14472;56.880;16.658;2023-10-19T12:27:56;1.33;;;0.70;;
26906;SDS011;14472;56.880;16.658;2023-10-19T12:30:22;2.50;;;0.90;;
26906;SDS011;14472;56.880;16.658;2023-10-19T12:32:51;1.73;;;0.70;;
26906;SDS011;14472;56.880;16.658;2023-10-19T12:35:17;1.17;;;0.70;;
26906;SDS011;14472;56.880;16.658;2023-10-19T12:37:55;1.03;;;0.80;;
26906;SDS011;14472;56.880;16.658;2023-10-19T12:40:21;0.90;;;0.70;;
26906;SDS011;14472;56.880;16.658;2023-10-19T12:42:53;1.77;;;0.70;;
26906;SDS011;14472;56.880;16.658;2023-10-19T12:45:23;3.70;;;0.97;;
26906;SDS011;14472;56.880;16.658;2023-10-19T12:47:50;1.83;;;0.70;;
26906;SDS011;14472;56.880;16.658;2023-10-19T12:50:18;0.87;;;0.67;;
26906;SDS011;14472;56.880;16.658;2023-10-19T12:52:48;1.47;;;0.97;;
26906;SDS011;14472;56.880;16.658;2023-10-19T12:55:15;1.87;;;0.90;;
26906;SDS011;14472;56.880;16.658;2023-10-19T12:57:41;2.37;;;0.70;;
26906;SDS011;14472;56.880;16.658;2023-10-19T13:00:07;1.00;;;0.77;;
26906;SDS011;14472;56.880;16.658;2023-10-19T13:02:49;0.50;;;0.50;;
26906;SDS011;14472;56.880;16.658;2023-10-19T13:05:15;1.47;;;0.80;;
26906;SDS011;14472;56.880;16.658;2023-10-19T13:07:44;1.00;;;0.80;;
26906;SDS011;14472;56.880;16.658;2023-10-19T13:10:10;1.00;;;0.80;;
26906;SDS011;14472;56.880;16.658;2023-10-19T13:12:38;1.87;;;1.00;;
26906;SDS011;14472;56.880;16.658;2023-10-19T13:15:04;1.87;;;0.70;;
26906;SDS011;14472;56.880;16.658;2023-10-19T13:17:38;1.43;;;0.80;;
26906;SDS011;14472;56.880;16.658;2023-10-19T13:20:05;1.60;;;0.80;;
26906;SDS011;14472;56.880;16.658;2023-10-19T13:22:41;0.80;;;0.70;;
26906;SDS011;14472;56.880;16.658;2023-10-19T13:25:07;1.37;;;0.70;;
26906;SDS011;14472;56.880;16.658;2023-10-19T13:27:42;3.57;;;0.70;;
26906;SDS011;14472;56.880;16.658;2023-10-19T13:30:14;2.77;;;1.00;;
26906;SDS011;14472;56.880;16.658;2023-10-19T13:32:40;0.70;;;0.70;;
26906;SDS011;14472;56.880;16.658;2023-10-19T13:35:08;0.60;;;0.57;;
26906;SDS011;14472;56.880;16.658;2023-10-19T13:37:34;1.40;;;0.70;;
26906;SDS011;14472;56.880;16.658;2023-10-19T13:40:01;0.60;;;0.60;;
26906;SDS011;14472;56.880;16.658;2023-10-19T13:42:29;2.63;;;0.80;;
26906;SDS011;14472;56.880;16.658;2023-10-19T13:44:54;0.80;;;0.70;;
26906;SDS011;14472;56.880;16.658;2023-10-19T13:47:21;0.70;;;0.63;;
26906;SDS011;14472;56.880;16.658;2023-10-19T13:49:47;2.40;;;0.70;;
26906;SDS011;14472;56.880;16.658;2023-10-19T13:52:12;0.73;;;0.73;;
26906;SDS011;14472;56.880;16.658;2023-10-19T13:54:40;2.50;;;0.77;;
26906;SDS011;14472;56.880;16.658;2023-10-19T13:57:06;1.60;;;0.70;;
26906;SDS011;14472;56.880;16.658;2023-10-19T13:59:31;1.83;;;0.80;;
26906;SDS011;14472;56.880;16.658;2023-10-19T14:01:58;1.73;;;0.73;;
26906;SDS011;14472;56.880;16.658;2023-10-19T14:04:24;0.80;;;0.67;;
26906;SDS011;14472;56.880;16.658;2023-10-19T14:06:51;0.70;;;0.70;;
26906;SDS011;14472;56.880;16.658;2023-10-19T14:09:16;1.67;;;0.57;;
26906;SDS011;14472;56.880;16.658;2023-10-19T14:11:43;2.27;;;0.80;;
26906;SDS011;14472;56.880;16.658;2023-10-19T14:14:10;0.90;;;0.73;;
26906;SDS011;14472;56.880;16.658;2023-10-19T14:16:36;1.60;;;0.70;;
26906;SDS011;14472;56.880;16.658;2023-10-19T14:19:02;0.70;;;0.70;;
26906;SDS011;14472;56.880;16.658;2023-10-19T14:21:29;0.70;;;0.70;;
26906;SDS011;14472;56.880;16.658;2023-10-19T14:23:55;2.30;;;0.80;;
26906;SDS011;14472;56.880;16.658;2023-10-19T14:26:21;0.97;;;0.63;;
26906;SDS011;14472;56.880;16.658;2023-10-19T14:28:47;2.07;;;0.80;;
26906;SDS011;14472;56.880;16.658;2023-10-19T14:31:13;1.03;;;0.60;;
26906;SDS011;14472;56.880;16.658;2023-10-19T14:33:39;0.77;;;0.73;;
26906;SDS011;14472;56.880;16.658;2023-10-19T14:36:05;1.67;;;1.00;;
26906;SDS011;14472;56.880;16.658;2023-10-19T14:38:31;1.47;;;0.70;;
26906;SDS011;14472;56.880;16.658;2023-10-19T14:40:57;1.60;;;0.60;;
26906;SDS011;14472;56.880;16.658;2023-10-19T14:43:23;1.10;;;0.90;;
26906;SDS011;14472;56.880;16.658;2023-10-19T14:45:50;0.60;;;0.60;;
26906;SDS011;14472;56.880;16.658;2023-10-19T14:48:16;0.97;;;0.87;;
26906;SDS011;14472;56.880;16.658;2023-10-19T14:50:44;0.90;;;0.80;;
26906;SDS011;14472;56.880;16.658;2023-10-19T14:53:10;1.20;;;1.07;;
26906;SDS011;14472;56.880;16.658;2023-10-19T14:55:37;1.97;;;0.90;;
26906;SDS011;14472;56.880;16.658;2023-10-19T14:58:03;1.43;;;1.00;;
26906;SDS011;14472;56.880;16.658;2023-10-19T15:00:31;2.37;;;0.90;;
26906;SDS011;14472;56.880;16.658;2023-10-19T15:03:03;0.80;;;0.80;;